| time (UTC) | temp F | wind direction | speed MPH | gust MPH | rain 1hr in | rain 24hr in | rain mn in | humidity % | barometer mb |
| 20260506061529 | 50 | 168 | 1.0 | 2.0 | 0.00 | 0.18 | 0.18 | 60 | 1011.0 |
| 20260506044512 | 54 | 325 | 0.0 | 0.0 | 0.00 | 0.18 | 0.18 | 52 | 1010.5 |
| 20260506043013 | 55 | 285 | 0.0 | 8.0 | 0.00 | 0.18 | 0.18 | 51 | 1010.2 |
| 20260506041506 | 55 | 18 | 0.0 | 4.0 | 0.00 | 0.18 | 0.18 | 50 | 1009.7 |
| 20260506040014 | 56 | 289 | 0.0 | 6.0 | 0.00 | 0.18 | 0.18 | 49 | 1009.7 |
| 20260506034512 | 57 | 342 | 1.0 | 4.0 | 0.00 | 0.18 | 0.18 | 48 | 1009.6 |
| 20260506033003 | 57 | 354 | 2.0 | 6.0 | 0.00 | 0.18 | 0.18 | 47 | 1009.2 |
| 20260506031502 | 57 | 59 | 0.0 | 5.0 | 0.00 | 0.18 | 0.18 | 44 | 1009.0 |
| 20260506030002 | 58 | 8 | 0.0 | 4.0 | 0.00 | 0.18 | 0.18 | 43 | 1008.7 |
| 20260506024619 | 58 | 53 | 0.0 | 6.0 | 0.00 | 0.18 | 0.18 | 42 | 1008.6 |
| 20260506023100 | 59 | 334 | 2.0 | 7.0 | 0.00 | 0.18 | 0.18 | 41 | 1008.3 |
| 20260506021558 | 59 | 257 | 1.0 | 6.0 | 0.00 | 0.18 | 0.18 | 38 | 1007.9 |
| 20260506020058 | 60 | 328 | 0.0 | 7.0 | 0.00 | 0.18 | 0.18 | 36 | 1007.7 |
| 20260506014556 | 61 | 41 | 1.0 | 6.0 | 0.00 | 0.18 | 0.18 | 34 | 1007.4 |
| 20260506014501 | 61 | 295 | 0.0 | 6.0 | 0.00 | 0.18 | 0.18 | 34 | 1007.5 |
| 20260506013107 | 62 | 349 | 3.0 | 12.0 | 0.00 | 0.18 | 0.18 | 33 | 1007.5 |
| 20260506011604 | 63 | 328 | 3.0 | 12.0 | 0.00 | 0.18 | 0.18 | 32 | 1007.1 |
| 20260506010050 | 64 | 338 | 4.0 | 9.0 | 0.00 | 0.18 | 0.18 | 31 | 1007.0 |
| 20260506004548 | 65 | 21 | 6.0 | 14.0 | 0.00 | 0.18 | 0.18 | 29 | 1006.8 |
| 20260506003047 | 66 | 333 | 4.0 | 8.0 | 0.00 | 0.18 | 0.18 | 29 | 1006.7 |
| 20260506001546 | 67 | 330 | 2.0 | 7.0 | 0.00 | 0.18 | 0.18 | 29 | 1006.6 |
| 20260506000044 | 67 | 198 | 2.0 | 8.0 | 0.00 | 0.18 | 0.18 | 30 | 1006.2 |
| 20260505234541 | 68 | 358 | 3.0 | 12.0 | 0.00 | 0.18 | 0.18 | 29 | 1006.2 |
| 20260505233039 | 68 | 320 | 3.0 | 11.0 | 0.00 | 0.18 | 0.18 | 29 | 1006.0 |
| 20260505231538 | 69 | 312 | 2.0 | 9.0 | 0.00 | 0.18 | 0.18 | 31 | 1005.9 |
| 20260505230050 | 69 | 88 | 2.0 | 6.0 | 0.00 | 0.18 | 0.18 | 32 | 1005.9 |
| 20260505224524 | 69 | 328 | 3.0 | 9.0 | 0.00 | 0.18 | 0.18 | 32 | 1006.0 |
| 20260505223027 | 69 | 120 | 3.0 | 10.0 | 0.00 | 0.18 | 0.18 | 34 | 1006.1 |
| 20260505221521 | 68 | 160 | 3.0 | 8.0 | 0.00 | 0.18 | 0.18 | 35 | 1006.1 |
| 20260505220021 | 67 | 53 | 8.0 | 14.0 | 0.00 | 0.18 | 0.18 | 36 | 1006.0 |
| 20260505214515 | 68 | 289 | 3.0 | 15.0 | 0.00 | 0.18 | 0.18 | 35 | 1006.2 |
| 20260505213013 | 68 | 64 | 3.0 | 17.0 | 0.00 | 0.18 | 0.18 | 37 | 1006.4 |
| 20260505211512 | 69 | 317 | 5.0 | 17.0 | 0.00 | 0.18 | 0.18 | 36 | 1006.7 |
| 20260505210010 | 69 | 343 | 5.0 | 14.0 | 0.00 | 0.18 | 0.18 | 36 | 1006.6 |
| 20260505204609 | 69 | 264 | 1.0 | 11.0 | 0.00 | 0.18 | 0.18 | 39 | 1006.4 |
| 20260505203045 | 68 | 290 | 4.0 | 12.0 | 0.00 | 0.18 | 0.18 | 40 | 1006.2 |
| 20260505201534 | 69 | 158 | 7.0 | 15.0 | 0.00 | 0.18 | 0.18 | 40 | 1006.4 |
| 20260505200035 | 70 | 86 | 4.0 | 17.0 | 0.00 | 0.18 | 0.18 | 41 | 1006.5 |
| 20260505194530 | 69 | 290 | 4.0 | 14.0 | 0.00 | 0.18 | 0.18 | 39 | 1006.5 |
| 20260505194528 | 69 | 276 | 4.0 | 14.0 | 0.00 | 0.18 | 0.18 | 39 | 1006.5 |
| 20260505193025 | 69 | 13 | 6.0 | 12.0 | 0.00 | 0.18 | 0.18 | 42 | 1006.2 |
| 20260505191523 | 68 | 45 | 6.0 | 15.0 | 0.00 | 0.18 | 0.18 | 43 | 1006.5 |
| 20260505190049 | 68 | 290 | 4.0 | 12.0 | 0.00 | 0.18 | 0.18 | 45 | 1006.8 |
| 20260505184547 | 67 | 357 | 1.0 | 11.0 | 0.00 | 0.18 | 0.18 | 48 | 1006.8 |
| 20260505183053 | 66 | 15 | 4.0 | 11.0 | 0.00 | 0.18 | 0.18 | 48 | 1007.3 |
| 20260505181543 | 66 | 229 | 4.0 | 22.0 | 0.00 | 0.18 | 0.18 | 51 | 1007.4 |
| 20260505180041 | 66 | 63 | 5.0 | 8.0 | 0.00 | 0.18 | 0.18 | 52 | 1007.4 |
| 20260505174546 | 67 | 340 | 0.0 | 15.0 | 0.00 | 0.18 | 0.18 | 55 | 1007.3 |
| 20260505173014 | 65 | 63 | 2.0 | 11.0 | 0.00 | 0.18 | 0.18 | 56 | 1007.0 |
| 20260505171503 | 64 | 271 | 2.0 | 10.0 | 0.00 | 0.18 | 0.18 | 59 | 1007.2 |
| 20260505170057 | 63 | 337 | 2.0 | 10.0 | 0.00 | 0.18 | 0.18 | 63 | 1007.2 |
| 20260505164601 | 62 | 221 | 0.0 | 13.0 | 0.00 | 0.18 | 0.18 | 69 | 1007.1 |
| 20260505163056 | 60 | 64 | 4.0 | 8.0 | 0.00 | 0.18 | 0.18 | 74 | 1007.2 |
| 20260505161548 | 59 | 74 | 0.0 | 5.0 | 0.00 | 0.18 | 0.18 | 77 | 1007.5 |
| 20260505153059 | 57 | 337 | 0.0 | 3.0 | 0.00 | 0.18 | 0.18 | 81 | 1007.5 |
| 20260505151553 | 57 | 329 | 1.0 | 3.0 | 0.00 | 0.18 | 0.18 | 80 | 1007.2 |
| 20260505124527 | 57 | 21 | 3.0 | 8.0 | 0.02 | 0.18 | 0.18 | 73 | 1005.3 |
| 20260505123023 | 57 | 155 | 0.0 | 20.0 | 0.02 | 0.18 | 0.18 | 73 | 1005.0 |
| 20260505121521 | 57 | 293 | 8.0 | 17.0 | 0.02 | 0.18 | 0.18 | 70 | 1005.8 |
| 20260505120019 | 57 | 160 | 0.0 | 13.0 | 0.03 | 0.18 | 0.18 | 71 | 1005.6 |
| 20260505114531 | 58 | 323 | 0.0 | 7.0 | 0.02 | 0.16 | 0.16 | 68 | 1005.0 |
| 20260505113015 | 58 | 269 | 5.0 | 14.0 | 0.02 | 0.16 | 0.16 | 68 | 1004.9 |
| 20260505111514 | 57 | 161 | 3.0 | 12.0 | 0.02 | 0.16 | 0.16 | 71 | 1004.8 |
| 20260505101503 | 56 | 202 | 3.0 | 12.0 | 0.03 | 0.14 | 0.14 | 77 | 1005.6 |
| 20260505100057 | 55 | 334 | 1.0 | 12.0 | 0.04 | 0.14 | 0.14 | 80 | 1005.9 |
| 20260505094601 | 53 | 264 | 2.0 | 8.0 | 0.05 | 0.14 | 0.14 | 83 | 1006.1 |
| 20260505093052 | 53 | 133 | 0.0 | 0.0 | 0.05 | 0.13 | 0.13 | 82 | 1006.5 |
| 20260505091557 | 53 | 113 | 0.0 | 0.0 | 0.05 | 0.11 | 0.11 | 81 | 1007.4 |
| 20260505090049 | 53 | 91 | 0.0 | 0.0 | 0.06 | 0.10 | 0.10 | 81 | 1007.9 |
| 20260505084514 | 53 | 64 | 0.0 | 1.0 | 0.06 | 0.09 | 0.09 | 80 | 1008.3 |
| 20260505083047 | 54 | 72 | 0.0 | 0.0 | 0.06 | 0.08 | 0.08 | 79 | 1008.5 |
| 20260505081552 | 54 | 7 | 0.0 | 3.0 | 0.05 | 0.06 | 0.06 | 79 | 1009.1 |
| 20260505080040 | 54 | 328 | 0.0 | 5.0 | 0.04 | 0.04 | 0.04 | 78 | 1009.0 |
| 20260505074530 | 55 | 22 | 0.0 | 0.0 | 0.03 | 0.03 | 0.03 | 75 | 1009.2 |
| 20260505073028 | 55 | 266 | 0.0 | 0.0 | 0.02 | 0.02 | 0.02 | 73 | 1009.2 |
| 20260505071528 | 56 | 333 | 0.0 | 4.0 | 0.01 | 0.01 | 0.01 | 71 | 1009.3 |
| 20260505070026 | 57 | 328 | 1.0 | 8.0 | 0.00 | 0.00 | 0.00 | 68 | 1009.1 |